Time;durP1;ratioP1;P1;durP2;ratioP2;P2;SDS_P1;SDS_P2;PMS_P1;PMS_P2;Temp;Humidity;BMP_temperature;BMP_pressure;BME280_temperature;BME280_humidity;BME280_pressure;Samples;Min_cycle;Max_cycle;Signal;HPM_P1;HPM_P2
2022/11/26 00:02:29;;;;;;;76.95;73.38;;;3.70;99.90;;;;;;5043449;28;20495;-84
2022/11/26 00:04:56;;;;;;;67.30;64.22;;;3.70;99.90;;;;;;5026125;28;20056;-80
2022/11/26 00:07:25;;;;;;;69.68;66.13;;;3.70;99.90;;;;;;5013037;28;20032;-84
2022/11/26 00:09:52;;;;;;;89.13;85.50;;;3.60;99.90;;;;;;5010124;28;20032;-82
2022/11/26 00:12:25;;;;;;;82.80;79.10;;;3.60;99.90;;;;;;5026714;28;20087;-84
2022/11/26 00:14:51;;;;;;;66.53;63.75;;;3.60;99.90;;;;;;5045327;28;20502;-83
2022/11/26 00:17:18;;;;;;;60.15;57.58;;;3.60;99.90;;;;;;5046484;28;20518;-84
2022/11/26 00:19:45;;;;;;;69.00;66.40;;;3.60;99.90;;;;;;5024358;28;20033;-83
2022/11/26 00:22:31;;;;;;;68.90;66.07;;;3.60;99.90;;;;;;5046725;28;20029;-85
2022/11/26 00:24:58;;;;;;;59.85;56.92;;;3.60;99.90;;;;;;5030175;28;20025;-81
2022/11/26 00:27:38;;;;;;;74.35;71.25;;;3.50;99.90;;;;;;5031148;28;20543;-80
2022/11/26 00:30:18;;;;;;;67.97;64.95;;;3.40;99.90;;;;;;5040906;28;20025;-81
2022/11/26 00:32:47;;;;;;;85.53;81.35;;;3.30;99.90;;;;;;5045153;28;20028;-81
2022/11/26 00:35:13;;;;;;;77.97;74.95;;;3.20;99.90;;;;;;5029429;28;20052;-82
2022/11/26 00:37:53;;;;;;;74.78;71.32;;;3.00;99.90;;;;;;5047185;28;20060;-79
2022/11/26 00:40:24;;;;;;;80.75;77.28;;;2.90;99.90;;;;;;5025916;28;20044;-83
2022/11/26 00:42:51;;;;;;;75.85;72.70;;;2.80;99.90;;;;;;5045255;28;20067;-81
2022/11/26 00:45:21;;;;;;;71.72;68.45;;;2.80;99.90;;;;;;5007545;28;20514;-80
2022/11/26 00:47:46;;;;;;;74.95;71.47;;;2.70;99.90;;;;;;5047313;28;20033;-83
2022/11/26 00:50:17;;;;;;;64.25;61.63;;;2.80;99.90;;;;;;5025255;28;20033;-85
2022/11/26 00:52:45;;;;;;;68.22;65.45;;;2.80;99.90;;;;;;5026727;28;20041;-83
2022/11/26 00:55:33;;;;;;;67.53;64.85;;;2.80;99.90;;;;;;5046870;28;20033;-81
2022/11/26 00:58:00;;;;;;;64.72;62.08;;;3.00;99.90;;;;;;5030143;28;20033;-85
2022/11/26 01:00:28;;;;;;;56.70;53.72;;;3.00;99.90;;;;;;5045882;28;20233;-81
2022/11/26 01:02:58;;;;;;;70.88;67.88;;;3.20;99.90;;;;;;5043395;28;20495;-81
2022/11/26 01:05:29;;;;;;;66.00;63.17;;;3.10;99.90;;;;;;5032223;28;20060;-81
2022/11/26 01:07:57;;;;;;;;;;;3.00;99.90;;;;;;5048591;28;20035;-84
2022/11/26 01:10:46;;;;;;;50.38;48.00;;;3.10;99.90;;;;;;5028385;28;19996;-81
2022/11/26 01:13:12;;;;;;;49.45;46.55;;;2.90;99.90;;;;;;5044941;28;20065;-80
2022/11/26 01:15:37;;;;;;;83.45;79.95;;;2.80;99.90;;;;;;5024830;28;20053;-80
2022/11/26 01:18:20;;;;;;;58.45;56.15;;;2.70;99.90;;;;;;5012004;28;20487;-79
2022/11/26 01:20:47;;;;;;;61.78;59.00;;;2.60;99.90;;;;;;5044633;28;20092;-83
2022/11/26 01:23:15;;;;;;;51.53;49.25;;;2.60;99.90;;;;;;5047776;28;20494;-81
2022/11/26 01:25:41;;;;;;;61.53;59.10;;;2.70;99.90;;;;;;5047197;28;20063;-80
2022/11/26 01:28:16;;;;;;;70.72;66.72;;;2.60;99.90;;;;;;5026969;28;20420;-82
2022/11/26 01:30:42;;;;;;;44.00;41.47;;;2.60;99.90;;;;;;5028950;28;20035;-82
2022/11/26 01:33:07;;;;;;;64.63;61.65;;;2.60;99.90;;;;;;5029500;28;20022;-82
2022/11/26 01:35:34;;;;;;;67.68;64.90;;;2.60;99.90;;;;;;5041337;28;20087;-81
2022/11/26 01:38:01;;;;;;;76.03;72.22;;;2.60;99.90;;;;;;5044664;28;20025;-82
2022/11/26 01:40:48;;;;;;;68.47;65.53;;;2.60;99.90;;;;;;5045533;28;20057;-82
2022/11/26 01:43:27;;;;;;;67.47;63.55;;;2.70;99.90;;;;;;5047031;28;20033;-83
2022/11/26 01:45:56;;;;;;;58.50;55.90;;;2.70;99.90;;;;;;5046038;28;20033;-79
2022/11/26 01:48:32;;;;;;;85.70;82.07;;;2.70;99.90;;;;;;5029520;28;20033;-82
2022/11/26 01:51:03;;;;;;;78.05;74.57;;;2.80;99.90;;;;;;5025296;28;20026;-84
2022/11/26 01:53:56;;;;;;;74.43;71.03;;;2.80;99.90;;;;;;5030602;28;20052;-80
2022/11/26 01:56:44;;;;;;;59.92;57.38;;;2.80;99.90;;;;;;5043346;28;20061;-83
2022/11/26 01:59:21;;;;;;;68.28;64.45;;;2.90;99.90;;;;;;5050949;28;20021;-83
2022/11/26 02:01:50;;;;;;;69.32;66.30;;;3.00;99.90;;;;;;5044874;28;20029;-84
2022/11/26 02:04:54;;;;;;;77.53;74.10;;;3.10;99.90;;;;;;5048878;28;20036;-80
2022/11/26 02:07:19;;;;;;;86.38;82.45;;;3.10;99.90;;;;;;4969625;28;20037;-81
2022/11/26 02:09:47;;;;;;;74.43;70.70;;;3.20;99.90;;;;;;4968373;28;20673;-81
2022/11/26 02:12:12;;;;;;;98.65;94.18;;;3.10;99.90;;;;;;5001086;28;20055;-84
2022/11/26 02:14:41;;;;;;;72.40;69.32;;;3.10;99.90;;;;;;5049587;28;20045;-80
2022/11/26 02:17:39;;;;;;;120.30;114.90;;;3.10;99.90;;;;;;5029574;28;20511;-79
2022/11/26 02:20:44;;;;;;;52.63;50.22;;;3.10;99.90;;;;;;5004328;28;20759;-79
2022/11/26 02:23:58;;;;;;;54.72;52.35;;;3.10;99.90;;;;;;5040196;28;20041;-84
2022/11/26 02:26:46;;;;;;;51.60;49.10;;;3.20;99.90;;;;;;5023201;28;20015;-81
2022/11/26 02:30:01;;;;;;;52.70;50.08;;;3.20;99.90;;;;;;5031011;28;20123;-82
2022/11/26 02:32:52;;;;;;;49.38;47.20;;;3.20;99.90;;;;;;5042606;28;20063;-85
2022/11/26 02:35:36;;;;;;;140.27;130.77;;;3.30;99.90;;;;;;5047951;28;20030;-81
2022/11/26 02:38:12;;;;;;;55.17;52.90;;;3.20;99.90;;;;;;5045010;28;20037;-81
2022/11/26 02:40:39;;;;;;;58.55;55.72;;;3.20;99.90;;;;;;5050731;28;20127;-81
2022/11/26 02:43:05;;;;;;;61.05;58.70;;;3.20;99.90;;;;;;5049966;28;20029;-82
2022/11/26 02:45:38;;;;;;;60.42;57.47;;;3.20;99.90;;;;;;5016799;28;20064;-83
2022/11/26 02:48:09;;;;;;;76.07;72.88;;;3.20;99.90;;;;;;5037617;28;20037;-82
2022/11/26 02:50:52;;;;;;;94.82;90.43;;;3.20;99.90;;;;;;5033426;28;20082;-84
2022/11/26 02:53:21;;;;;;;68.32;64.72;;;3.30;99.90;;;;;;5024013;28;20553;-84
2022/11/26 02:55:51;;;;;;;70.78;67.75;;;3.20;99.90;;;;;;5013360;28;20040;-83
2022/11/26 02:58:18;;;;;;;205.50;191.10;;;3.20;99.90;;;;;;5032027;28;20032;-80
2022/11/26 03:00:45;;;;;;;101.10;96.75;;;3.10;99.90;;;;;;5028133;28;20025;-81
2022/11/26 03:03:22;;;;;;;78.40;74.95;;;3.10;99.90;;;;;;5026813;28;20118;-82
2022/11/26 03:05:55;;;;;;;84.60;80.93;;;3.10;99.90;;;;;;5022938;28;20703;-81
2022/11/26 03:08:21;;;;;;;68.43;65.55;;;3.10;99.90;;;;;;5041433;28;20122;-83
2022/11/26 03:10:48;;;;;;;67.55;64.82;;;3.20;99.90;;;;;;5048312;28;20035;-82
2022/11/26 03:13:13;;;;;;;67.05;64.50;;;3.10;99.90;;;;;;5047756;28;20051;-84
2022/11/26 03:15:39;;;;;;;75.97;72.72;;;3.20;99.90;;;;;;5009359;28;20438;-81
2022/11/26 03:18:05;;;;;;;73.70;70.50;;;3.10;99.90;;;;;;5025761;28;20037;-82
2022/11/26 03:20:30;;;;;;;69.07;65.93;;;3.00;99.90;;;;;;5011624;28;20092;-81
2022/11/26 03:22:59;;;;;;;70.55;67.43;;;3.10;99.90;;;;;;5049356;28;20031;-83
2022/11/26 03:25:25;;;;;;;66.13;63.22;;;3.10;99.90;;;;;;5049507;28;20124;-79
2022/11/26 03:27:50;;;;;;;83.82;80.15;;;3.10;99.90;;;;;;5046956;28;20132;-81
2022/11/26 03:30:16;;;;;;;91.32;87.50;;;3.10;99.90;;;;;;5049065;28;20142;-79
2022/11/26 03:32:42;;;;;;;57.85;55.33;;;3.00;99.90;;;;;;5014968;28;20031;-82
2022/11/26 03:35:08;;;;;;;108.97;104.50;;;3.00;99.90;;;;;;5019689;28;20033;-83
2022/11/26 03:37:34;;;;;;;83.00;79.63;;;2.90;99.90;;;;;;5023403;28;20427;-81
2022/11/26 03:39:59;;;;;;;233.85;220.73;;;2.90;99.90;;;;;;5040865;28;20095;-83
2022/11/26 03:42:26;;;;;;;81.00;77.40;;;2.80;99.90;;;;;;5043608;28;20033;-85
2022/11/26 03:44:52;;;;;;;70.60;67.57;;;2.80;99.90;;;;;;5045604;28;20048;-83
2022/11/26 03:47:17;;;;;;;58.10;55.15;;;2.90;99.90;;;;;;5025799;28;20026;-82
2022/11/26 03:49:43;;;;;;;62.97;60.25;;;2.90;99.90;;;;;;5038610;28;20039;-82
2022/11/26 03:52:09;;;;;;;59.40;56.70;;;2.80;99.90;;;;;;5049096;28;20119;-82
2022/11/26 03:54:35;;;;;;;78.47;75.35;;;2.80;99.90;;;;;;5075945;28;20398;-80
2022/11/26 03:57:00;;;;;;;76.35;73.07;;;2.90;99.90;;;;;;5064103;28;20032;-82
2022/11/26 03:59:26;;;;;;;67.13;64.35;;;2.80;99.90;;;;;;5059137;28;20498;-83
2022/11/26 04:01:52;;;;;;;62.40;59.75;;;2.70;99.90;;;;;;5064112;28;20028;-83
2022/11/26 04:04:17;;;;;;;49.75;47.22;;;2.70;99.90;;;;;;5051526;28;20036;-80
2022/11/26 04:06:43;;;;;;;65.07;62.13;;;2.70;99.90;;;;;;5050981;28;20048;-79
2022/11/26 04:09:10;;;;;;;76.70;73.32;;;2.70;99.90;;;;;;5053112;28;20037;-84
2022/11/26 04:11:35;;;;;;;69.10;65.60;;;2.70;99.90;;;;;;5068830;28;20542;-85
2022/11/26 04:14:01;;;;;;;72.10;68.95;;;2.70;99.90;;;;;;5036730;28;20128;-79
2022/11/26 04:16:26;;;;;;;83.63;79.82;;;2.80;99.90;;;;;;5048243;28;20056;-82
2022/11/26 04:18:52;;;;;;;71.25;68.25;;;2.70;99.90;;;;;;5050941;28;20036;-79
2022/11/26 04:21:20;;;;;;;68.28;65.25;;;2.70;99.90;;;;;;5043434;28;20123;-83
2022/11/26 04:23:46;;;;;;;70.18;66.40;;;2.70;99.90;;;;;;5031932;28;20131;-83
2022/11/26 04:26:12;;;;;;;61.10;58.08;;;2.70;99.90;;;;;;5069890;28;20111;-81
2022/11/26 04:28:39;;;;;;;73.55;70.15;;;2.80;99.90;;;;;;5033587;28;20040;-79
2022/11/26 04:31:04;;;;;;;62.00;59.30;;;2.80;99.90;;;;;;5034096;28;20028;-85
2022/11/26 04:33:30;;;;;;;69.85;66.53;;;2.70;99.90;;;;;;5066316;28;20032;-83
2022/11/26 04:35:56;;;;;;;77.15;73.03;;;2.70;99.90;;;;;;5053331;28;20032;-81
2022/11/26 04:38:21;;;;;;;77.63;74.28;;;2.70;99.90;;;;;;5064436;28;20119;-84
2022/11/26 04:40:47;;;;;;;79.60;76.13;;;2.70;99.90;;;;;;5031831;28;20394;-83
2022/11/26 04:43:14;;;;;;;70.35;67.07;;;2.70;99.90;;;;;;5061398;28;20463;-80
2022/11/26 04:45:40;;;;;;;60.35;57.35;;;2.80;99.90;;;;;;5054397;28;20054;-80
2022/11/26 04:48:06;;;;;;;95.72;91.43;;;2.70;99.90;;;;;;5031512;28;20032;-79
2022/11/26 04:50:32;;;;;;;55.22;52.47;;;2.80;99.90;;;;;;5035644;28;20741;-82
2022/11/26 04:52:58;;;;;;;70.60;67.40;;;2.80;99.90;;;;;;5017822;28;20049;-81
2022/11/26 04:55:23;;;;;;;68.57;65.70;;;2.70;99.90;;;;;;5028533;28;20033;-81
2022/11/26 04:57:49;;;;;;;70.93;67.07;;;2.70;99.90;;;;;;5048229;28;20107;-82
2022/11/26 05:00:17;;;;;;;55.47;52.55;;;2.70;99.90;;;;;;5040258;28;20044;-80
2022/11/26 05:02:43;;;;;;;60.03;57.17;;;2.80;99.90;;;;;;5047438;28;20040;-81
2022/11/26 05:05:10;;;;;;;56.42;53.80;;;2.70;99.90;;;;;;5043570;28;20052;-82
2022/11/26 05:07:35;;;;;;;58.90;56.10;;;2.70;99.90;;;;;;5025618;28;20121;-78
2022/11/26 05:10:01;;;;;;;62.70;59.42;;;2.70;99.90;;;;;;5031380;28;20100;-81
2022/11/26 05:12:27;;;;;;;57.95;55.33;;;2.70;99.90;;;;;;5030303;28;20033;-85
2022/11/26 05:14:53;;;;;;;58.60;55.80;;;2.60;99.90;;;;;;5027930;28;20036;-83
2022/11/26 05:17:18;;;;;;;62.97;60.05;;;2.50;99.90;;;;;;5037684;28;20053;-84
2022/11/26 05:19:44;;;;;;;83.78;80.22;;;2.50;99.90;;;;;;5042010;28;20495;-83
2022/11/26 05:22:09;;;;;;;58.60;55.47;;;2.50;99.90;;;;;;5028574;28;20033;-84
2022/11/26 05:24:36;;;;;;;69.28;66.25;;;2.50;99.90;;;;;;5030247;28;20037;-82
2022/11/26 05:27:03;;;;;;;49.92;47.28;;;2.40;99.90;;;;;;5019778;28;20021;-81
2022/11/26 05:29:30;;;;;;;60.70;57.92;;;2.50;99.90;;;;;;5033870;28;20449;-81
2022/11/26 05:31:57;;;;;;;49.13;46.53;;;2.60;99.90;;;;;;5040041;28;20017;-82
2022/11/26 05:34:23;;;;;;;260.08;244.65;;;2.60;99.90;;;;;;5030591;28;20090;-80
2022/11/26 05:36:49;;;;;;;108.68;103.22;;;2.70;99.90;;;;;;5024739;28;20049;-80
2022/11/26 05:39:15;;;;;;;70.95;67.75;;;2.80;99.90;;;;;;5029225;28;20479;-83
2022/11/26 05:41:40;;;;;;;66.43;63.42;;;2.80;99.90;;;;;;5051630;28;20084;-82
2022/11/26 05:44:06;;;;;;;61.40;58.28;;;2.80;99.90;;;;;;5047295;28;20501;-84
2022/11/26 05:46:32;;;;;;;74.97;71.10;;;2.70;99.90;;;;;;5044312;28;20056;-84
2022/11/26 05:48:58;;;;;;;57.00;54.33;;;2.70;99.90;;;;;;5025995;28;20035;-81
2022/11/26 05:51:23;;;;;;;71.70;68.00;;;2.60;99.90;;;;;;5032001;28;20033;-79
2022/11/26 05:53:49;;;;;;;63.83;60.25;;;2.50;99.90;;;;;;5050481;28;20049;-82
2022/11/26 05:56:14;;;;;;;72.65;69.38;;;2.40;99.90;;;;;;5051169;28;20506;-80
2022/11/26 05:58:43;;;;;;;59.25;55.75;;;2.40;99.90;;;;;;5033066;28;20025;-80
2022/11/26 06:01:09;;;;;;;55.75;52.58;;;2.30;99.90;;;;;;5050809;28;20540;-80
2022/11/26 06:03:36;;;;;;;65.00;61.42;;;2.30;99.90;;;;;;5031692;28;20047;-81
2022/11/26 06:06:02;;;;;;;62.20;59.28;;;2.20;99.90;;;;;;5051080;28;20033;-85
2022/11/26 06:08:28;;;;;;;64.05;60.95;;;2.30;99.90;;;;;;5030913;28;20310;-83
2022/11/26 06:10:54;;;;;;;59.67;56.63;;;2.20;99.90;;;;;;5051456;28;20040;-86
2022/11/26 06:13:20;;;;;;;66.80;63.63;;;2.30;99.90;;;;;;5033087;28;20033;-82
2022/11/26 06:15:45;;;;;;;60.50;57.78;;;2.30;99.90;;;;;;5033401;28;20116;-82
2022/11/26 06:18:11;;;;;;;54.47;51.67;;;2.20;99.90;;;;;;5016294;28;20483;-85
2022/11/26 06:20:37;;;;;;;64.38;61.35;;;2.30;99.90;;;;;;5035547;28;20502;-83
2022/11/26 06:23:03;;;;;;;68.82;65.78;;;2.10;99.90;;;;;;5050990;28;20060;-85
2022/11/26 06:25:29;;;;;;;90.47;85.13;;;2.10;99.90;;;;;;5051090;28;20487;-83
2022/11/26 06:27:55;;;;;;;65.05;61.72;;;2.10;99.90;;;;;;5051384;28;20060;-81
2022/11/26 06:30:21;;;;;;;69.82;65.60;;;2.00;99.90;;;;;;5049176;28;20092;-84
2022/11/26 06:32:47;;;;;;;83.28;79.47;;;1.90;99.90;;;;;;5032956;28;20557;-83
2022/11/26 06:35:13;;;;;;;70.90;66.40;;;1.90;99.90;;;;;;5019553;28;20052;-83
2022/11/26 06:37:39;;;;;;;55.03;52.33;;;1.90;99.90;;;;;;5050895;28;20033;-85
2022/11/26 06:40:06;;;;;;;74.13;70.57;;;1.90;99.90;;;;;;5015298;28;20041;-84
2022/11/26 06:42:32;;;;;;;49.17;46.85;;;1.90;99.90;;;;;;5050292;28;20067;-81
2022/11/26 06:44:57;;;;;;;57.17;54.45;;;1.80;99.90;;;;;;5034986;28;20063;-83
2022/11/26 06:47:23;;;;;;;68.35;64.85;;;1.90;99.90;;;;;;5034666;28;20040;-83
2022/11/26 06:49:48;;;;;;;71.10;67.70;;;2.00;99.90;;;;;;5032955;28;20507;-81
2022/11/26 06:52:14;;;;;;;70.05;66.47;;;2.10;99.90;;;;;;5053005;28;20481;-84
2022/11/26 06:54:41;;;;;;;73.18;69.68;;;2.10;99.90;;;;;;5068576;28;20065;-83
2022/11/26 06:57:07;;;;;;;62.92;59.25;;;2.00;99.90;;;;;;5052067;28;20028;-85
2022/11/26 06:59:34;;;;;;;60.42;57.22;;;2.00;99.90;;;;;;5049624;28;20123;-83
2022/11/26 07:02:00;;;;;;;63.90;60.80;;;1.90;99.90;;;;;;5033984;28;20033;-80
2022/11/26 07:04:25;;;;;;;50.33;47.85;;;1.90;99.90;;;;;;5069784;28;20043;-82
2022/11/26 07:06:51;;;;;;;56.97;53.95;;;1.80;99.90;;;;;;5066126;28;20532;-80
2022/11/26 07:09:16;;;;;;;57.28;54.00;;;1.70;99.90;;;;;;5052418;28;20124;-80
2022/11/26 07:11:42;;;;;;;65.57;62.20;;;1.80;99.90;;;;;;5032884;28;20077;-80
2022/11/26 07:14:08;;;;;;;73.28;69.63;;;1.80;99.90;;;;;;5069667;28;20503;-81
2022/11/26 07:16:35;;;;;;;54.75;51.38;;;1.80;99.90;;;;;;5066301;28;20029;-81
2022/11/26 07:19:01;;;;;;;64.10;60.78;;;1.80;99.90;;;;;;5069690;28;20025;-80
2022/11/26 07:21:27;;;;;;;59.03;55.55;;;1.70;99.90;;;;;;5051576;28;20026;-84
2022/11/26 07:23:53;;;;;;;60.70;57.72;;;1.70;99.90;;;;;;5050513;28;20177;-82
2022/11/26 07:26:21;;;;;;;56.35;53.70;;;1.80;99.90;;;;;;5049513;28;20698;-82
2022/11/26 07:28:47;;;;;;;57.47;54.17;;;1.80;99.90;;;;;;5069072;28;20406;-81
2022/11/26 07:31:16;;;;;;;60.20;57.38;;;1.80;99.90;;;;;;5069145;28;20039;-83
2022/11/26 07:33:42;;;;;;;69.95;66.55;;;1.90;99.90;;;;;;5034380;28;20028;-81
2022/11/26 07:36:22;;;;;;;61.90;58.78;;;1.90;99.90;;;;;;5049027;28;20114;-83
2022/11/26 07:38:48;;;;;;;49.57;46.90;;;2.00;99.90;;;;;;5068842;28;20028;-79
2022/11/26 07:41:18;;;;;;;55.80;52.83;;;2.00;99.90;;;;;;5051913;28;20029;-82
2022/11/26 07:43:44;;;;;;;67.15;63.38;;;2.00;99.90;;;;;;5067811;28;20078;-84
2022/11/26 07:46:12;;;;;;;72.75;69.05;;;2.20;99.90;;;;;;5068283;28;20108;-79
2022/11/26 07:48:39;;;;;;;75.43;71.60;;;2.30;99.90;;;;;;5037230;28;20083;-80
2022/11/26 07:51:14;;;;;;;80.70;77.13;;;2.30;99.90;;;;;;5047784;28;20053;-81
2022/11/26 07:53:40;;;;;;;73.28;69.57;;;2.30;99.90;;;;;;5067600;28;20410;-82
2022/11/26 07:56:05;;;;;;;67.15;64.00;;;2.40;99.90;;;;;;5032210;28;20036;-81
2022/11/26 07:58:32;;;;;;;64.72;61.72;;;2.40;99.90;;;;;;5068869;28;20028;-81
2022/11/26 08:01:06;;;;;;;57.42;54.92;;;2.40;99.90;;;;;;5048928;28;20496;-82
2022/11/26 08:03:32;;;;;;;70.10;66.43;;;2.40;99.90;;;;;;5050316;28;20028;-81
2022/11/26 08:05:57;;;;;;;85.57;81.78;;;2.50;99.90;;;;;;5051734;28;20647;-83
2022/11/26 08:08:23;;;;;;;80.97;77.32;;;2.60;99.90;;;;;;5035961;28;20028;-83
2022/11/26 08:10:48;;;;;;;86.22;82.35;;;2.70;99.90;;;;;;5045120;28;20028;-82
2022/11/26 08:13:14;;;;;;;87.05;83.20;;;2.80;99.90;;;;;;5048750;28;20033;-81
2022/11/26 08:15:39;;;;;;;92.68;88.28;;;2.90;99.90;;;;;;5050387;28;20525;-78
2022/11/26 08:18:05;;;;;;;94.68;90.72;;;3.00;99.90;;;;;;5050912;28;20050;-83
2022/11/26 08:20:31;;;;;;;78.10;74.07;;;3.10;99.90;;;;;;5060065;28;20029;-81
2022/11/26 08:22:58;;;;;;;83.97;80.15;;;3.20;99.90;;;;;;5061124;28;20121;-83
2022/11/26 08:25:23;;;;;;;88.85;84.95;;;3.30;99.90;;;;;;5030758;28;20029;-82
2022/11/26 08:27:49;;;;;;;69.68;66.55;;;3.40;99.90;;;;;;5049786;28;20028;-79
2022/11/26 08:30:15;;;;;;;77.55;74.05;;;3.50;99.90;;;;;;5032929;28;20031;-81
2022/11/26 08:32:40;;;;;;;95.90;91.72;;;3.50;99.90;;;;;;5049383;28;20032;-81
2022/11/26 08:35:06;;;;;;;75.63;72.18;;;3.50;99.90;;;;;;5068417;28;20040;-80
2022/11/26 08:37:32;;;;;;;78.15;74.57;;;3.40;99.90;;;;;;5032828;28;20495;-81
2022/11/26 08:39:59;;;;;;;81.60;77.40;;;3.40;99.90;;;;;;5050212;28;20522;-79
2022/11/26 08:42:25;;;;;;;83.00;79.38;;;3.40;99.90;;;;;;5046153;28;20516;-80
2022/11/26 08:44:51;;;;;;;78.15;74.07;;;3.40;99.90;;;;;;5046489;28;20114;-80
2022/11/26 08:47:16;;;;;;;72.90;69.63;;;3.30;99.90;;;;;;5033286;28;20025;-82
2022/11/26 08:49:42;;;;;;;67.88;64.38;;;3.50;99.90;;;;;;5065821;28;20379;-83
2022/11/26 08:52:07;;;;;;;87.00;82.85;;;3.50;99.90;;;;;;5063007;28;20025;-82
2022/11/26 08:54:33;;;;;;;85.68;81.43;;;3.70;99.90;;;;;;5047257;28;20028;-80
2022/11/26 08:56:59;;;;;;;74.75;71.32;;;3.80;99.90;;;;;;5066525;28;20044;-79
2022/11/26 08:59:25;;;;;;;67.15;63.80;;;4.00;99.90;;;;;;5046424;28;20120;-79
2022/11/26 09:01:51;;;;;;;88.90;84.88;;;4.10;99.90;;;;;;5067570;28;20078;-79
2022/11/26 09:04:17;;;;;;;84.65;80.90;;;4.20;99.90;;;;;;5050207;28;20105;-79
2022/11/26 09:06:42;;;;;;;92.97;89.07;;;4.20;99.90;;;;;;5070482;28;20530;-78
2022/11/26 09:09:11;;;;;;;67.93;63.97;;;4.40;99.90;;;;;;5072226;28;20474;-79
2022/11/26 09:11:41;;;;;;;81.55;77.15;;;4.40;99.90;;;;;;5053290;28;20025;-80
2022/11/26 09:14:08;;;;;;;74.95;71.47;;;4.60;99.90;;;;;;5067692;28;20031;-79
2022/11/26 09:16:33;;;;;;;92.00;87.68;;;4.90;99.90;;;;;;5032582;28;20040;-80
2022/11/26 09:19:01;;;;;;;88.93;84.65;;;5.00;99.90;;;;;;5050133;28;20522;-80
2022/11/26 09:21:27;;;;;;;84.60;80.25;;;5.00;99.90;;;;;;5055693;28;20029;-79
2022/11/26 09:23:53;;;;;;;74.57;70.78;;;5.20;99.90;;;;;;5049187;28;20462;-80
2022/11/26 09:26:20;;;;;;;88.90;84.60;;;5.40;99.90;;;;;;5045766;28;20033;-78
2022/11/26 09:28:48;;;;;;;89.53;84.65;;;5.40;99.90;;;;;;5070531;28;20256;-80
2022/11/26 09:31:16;;;;;;;112.03;106.72;;;5.40;99.90;;;;;;5050195;28;20060;-79
2022/11/26 09:33:42;;;;;;;109.85;105.20;;;5.50;99.90;;;;;;5053890;28;20027;-78
2022/11/26 09:36:10;;;;;;;97.55;93.43;;;5.60;99.90;;;;;;5064766;28;20454;-78
2022/11/26 09:38:37;;;;;;;99.88;95.70;;;5.60;99.90;;;;;;5071411;28;20016;-79
2022/11/26 09:41:21;;;;;;;100.90;96.88;;;5.60;99.90;;;;;;5069039;28;20032;-79
2022/11/26 09:44:08;;;;;;;81.63;77.72;;;5.40;99.90;;;;;;5070563;28;20025;-80
2022/11/26 09:46:56;;;;;;;60.53;57.90;;;5.30;99.90;;;;;;5069300;28;20020;-78
2022/11/26 09:49:22;;;;;;;96.40;92.50;;;5.30;99.90;;;;;;5071568;28;20020;-80
2022/11/26 09:51:54;;;;;;;90.88;86.90;;;5.30;99.90;;;;;;5067381;28;20078;-80
2022/11/26 09:54:22;;;;;;;80.93;77.63;;;5.30;99.90;;;;;;5051044;28;20055;-78
2022/11/26 09:56:52;;;;;;;73.63;70.30;;;5.30;99.90;;;;;;5048097;28;20123;-77
2022/11/26 09:59:19;;;;;;;85.93;82.27;;;5.40;99.90;;;;;;5051220;28;20036;-79
2022/11/26 10:01:45;;;;;;;91.78;88.00;;;5.30;99.90;;;;;;5069078;28;20108;-80
2022/11/26 10:04:22;;;;;;;81.97;78.38;;;5.30;99.90;;;;;;5068998;28;20111;-84
2022/11/26 10:06:55;;;;;;;83.63;80.18;;;5.20;99.90;;;;;;5070703;28;20486;-82
2022/11/26 10:09:35;;;;;;;119.80;114.68;;;5.30;99.90;;;;;;5069659;28;20082;-81
2022/11/26 10:12:31;;;;;;;103.93;99.47;;;5.30;99.90;;;;;;5069331;28;20504;-81
2022/11/26 10:15:22;;;;;;;110.95;106.63;;;5.50;99.90;;;;;;5069002;28;20032;-78
2022/11/26 10:18:09;;;;;;;96.95;92.82;;;5.70;99.90;;;;;;5069569;28;20067;-78
2022/11/26 10:20:49;;;;;;;106.05;101.85;;;5.70;99.90;;;;;;5045411;28;20043;-80
2022/11/26 10:23:33;;;;;;;90.43;86.85;;;5.60;99.90;;;;;;5066130;28;20071;-79
2022/11/26 10:26:28;;;;;;;121.30;115.07;;;5.50;99.90;;;;;;5059657;28;20111;-80
2022/11/26 10:29:05;;;;;;;64.90;61.75;;;5.40;99.90;;;;;;5052460;28;20078;-78
2022/11/26 10:31:33;;;;;;;90.90;87.30;;;5.60;99.90;;;;;;5049004;28;20043;-77
2022/11/26 10:34:02;;;;;;;102.32;98.20;;;5.60;99.90;;;;;;5070544;28;20035;-80
2022/11/26 10:36:38;;;;;;;104.05;99.78;;;5.70;99.90;;;;;;5067469;28;20029;-78
2022/11/26 10:39:06;;;;;;;90.38;86.55;;;5.90;99.90;;;;;;5048523;28;20039;-79
2022/11/26 10:41:34;;;;;;;86.65;83.10;;;6.00;99.90;;;;;;5068897;28;20039;-78
2022/11/26 10:44:39;;;;;;;128.35;123.22;;;6.20;99.90;;;;;;5052521;28;20049;-80
2022/11/26 10:47:29;;;;;;;93.25;89.00;;;6.20;99.90;;;;;;5060382;28;20490;-78
2022/11/26 10:50:19;;;;;;;89.82;86.05;;;6.30;99.90;;;;;;5052079;28;20027;-78
2022/11/26 10:52:45;;;;;;;112.77;108.27;;;6.60;99.90;;;;;;5051401;28;20048;-82
2022/11/26 10:55:31;;;;;;;98.60;93.95;;;6.60;99.90;;;;;;5065707;28;20039;-80
2022/11/26 10:58:02;;;;;;;105.88;101.68;;;6.70;99.90;;;;;;5066767;28;20292;-79
2022/11/26 11:00:37;;;;;;;122.00;117.03;;;6.80;99.90;;;;;;5048259;28;20116;-79
2022/11/26 11:03:14;;;;;;;116.13;111.05;;;7.00;99.90;;;;;;5049347;28;20028;-81
2022/11/26 11:05:41;;;;;;;100.68;96.53;;;7.00;99.90;;;;;;5042894;28;20118;-79
2022/11/26 11:08:27;;;;;;;94.05;90.25;;;6.80;99.90;;;;;;5050379;28;20025;-81
2022/11/26 11:10:55;;;;;;;57.15;54.80;;;6.90;99.90;;;;;;5067317;28;20522;-80
2022/11/26 11:13:23;;;;;;;78.22;75.03;;;7.00;99.90;;;;;;5035141;28;20449;-80
2022/11/26 11:16:00;;;;;;;48.13;46.00;;;7.00;99.90;;;;;;5048223;28;20021;-78
2022/11/26 11:18:25;;;;;;;108.30;103.75;;;7.20;99.90;;;;;;5047968;28;20786;-80
2022/11/26 11:21:02;;;;;;;80.88;77.55;;;7.40;99.90;;;;;;5048680;28;20146;-79
2022/11/26 11:23:37;;;;;;;70.95;67.90;;;7.10;99.90;;;;;;5064655;28;20028;-79
2022/11/26 11:26:15;;;;;;;46.88;44.78;;;7.00;99.90;;;;;;5047258;28;20032;-79
2022/11/26 11:28:50;;;;;;;55.35;53.03;;;6.80;99.90;;;;;;5059440;28;20105;-79
2022/11/26 11:31:24;;;;;;;42.90;40.63;;;6.60;99.90;;;;;;5048888;28;20032;-78
2022/11/26 11:34:12;;;;;;;62.58;59.85;;;6.40;99.90;;;;;;5049454;28;20041;-82
2022/11/26 11:36:38;;;;;;;75.88;72.70;;;6.50;99.90;;;;;;5048025;28;20017;-77
2022/11/26 11:39:04;;;;;;;85.05;81.53;;;6.50;99.90;;;;;;5068324;28;20074;-80
2022/11/26 11:41:41;;;;;;;63.25;60.45;;;6.40;99.90;;;;;;5066973;28;20035;-79
2022/11/26 11:44:45;;;;;;;83.55;79.85;;;6.30;99.90;;;;;;5065438;28;20055;-80
2022/11/26 11:47:42;;;;;;;111.30;106.25;;;6.30;99.90;;;;;;5063257;28;20037;-78
2022/11/26 11:50:29;;;;;;;76.97;73.05;;;6.40;99.90;;;;;;5065368;28;20028;-78
2022/11/26 11:53:16;;;;;;;129.10;124.20;;;6.40;99.90;;;;;;5063596;28;20560;-81
2022/11/26 11:55:57;;;;;;;68.57;65.60;;;6.40;99.90;;;;;;5055244;28;20029;-79
2022/11/26 11:58:44;;;;;;;73.47;70.35;;;6.50;99.90;;;;;;5034114;28;20043;-80
2022/11/26 12:01:29;;;;;;;48.50;45.97;;;6.60;99.90;;;;;;5053414;28;20026;-80
2022/11/26 12:04:27;;;;;;;66.75;64.00;;;6.60;99.90;;;;;;5058624;28;20794;-81
2022/11/26 12:07:13;;;;;;;60.00;57.28;;;6.70;99.90;;;;;;5047500;28;20032;-80
2022/11/26 12:09:57;;;;;;;303.65;280.25;;;6.80;99.90;;;;;;5035207;28;20032;-79
2022/11/26 12:12:43;;;;;;;68.50;65.72;;;6.80;99.90;;;;;;5053916;28;20115;-80
2022/11/26 12:15:15;;;;;;;25.38;24.05;;;7.10;99.90;;;;;;5034289;28;20115;-79
2022/11/26 12:18:07;;;;;;;61.95;58.58;;;7.10;99.90;;;;;;5052360;28;20068;-81
2022/11/26 12:20:50;;;;;;;45.92;43.88;;;7.30;99.90;;;;;;5053420;28;20056;-80
2022/11/26 12:23:50;;;;;;;15.90;15.18;;;7.50;99.90;;;;;;5051650;28;20037;-78
2022/11/26 12:26:54;;;;;;;10.32;9.75;;;7.50;99.90;;;;;;5058150;28;20483;-82
2022/11/26 12:29:25;;;;;;;12.32;11.43;;;7.60;99.10;;;;;;4972104;28;20082;-79
2022/11/26 12:32:38;;;;;;;17.13;13.43;;;7.50;98.70;;;;;;5048871;28;20029;-81
2022/11/26 12:35:10;;;;;;;12.68;11.68;;;7.60;98.90;;;;;;5048058;28;20099;-80
2022/11/26 12:37:39;;;;;;;14.13;13.27;;;7.70;98.40;;;;;;5034278;28;20028;-80
2022/11/26 12:40:09;;;;;;;13.93;12.35;;;7.70;97.70;;;;;;5040847;28;20096;-80
2022/11/26 12:42:53;;;;;;;11.85;11.05;;;7.80;97.00;;;;;;5032536;28;20025;-81
2022/11/26 12:45:38;;;;;;;13.75;12.65;;;7.80;97.40;;;;;;5038824;28;20025;-82
2022/11/26 12:48:24;;;;;;;13.50;12.48;;;7.80;96.90;;;;;;5055137;28;20035;-83
2022/11/26 12:51:02;;;;;;;11.40;10.60;;;7.70;97.00;;;;;;5046005;28;20029;-80
2022/11/26 12:53:42;;;;;;;16.10;10.13;;;7.80;96.60;;;;;;5060505;28;20097;-82
2022/11/26 12:56:36;;;;;;;10.13;9.23;;;7.80;96.70;;;;;;5064849;28;20089;-81
2022/11/26 12:59:06;;;;;;;13.82;12.98;;;7.80;96.40;;;;;;5067614;28;20486;-83